sensor_id;sensor_type;location;lat;lon;timestamp;P1;durP1;ratioP1;P2;durP2;ratioP2
39050;SDS011;24805;55.852;37.644;2023-09-12T00:02:29;38.55;;;24.17;;
39050;SDS011;24805;55.852;37.644;2023-09-12T00:07:31;33.30;;;22.35;;
39050;SDS011;24805;55.852;37.644;2023-09-12T00:12:33;29.00;;;22.77;;
39050;SDS011;24805;55.852;37.644;2023-09-12T00:17:36;31.65;;;21.83;;
39050;SDS011;24805;55.852;37.644;2023-09-12T00:22:38;36.28;;;22.55;;
39050;SDS011;24805;55.852;37.644;2023-09-12T00:27:40;32.95;;;21.17;;
39050;SDS011;24805;55.852;37.644;2023-09-12T00:32:42;32.63;;;22.33;;
39050;SDS011;24805;55.852;37.644;2023-09-12T00:37:44;33.00;;;22.88;;
39050;SDS011;24805;55.852;37.644;2023-09-12T00:42:47;32.22;;;21.05;;
39050;SDS011;24805;55.852;37.644;2023-09-12T00:47:49;31.60;;;21.27;;
39050;SDS011;24805;55.852;37.644;2023-09-12T00:52:53;30.42;;;21.10;;
39050;SDS011;24805;55.852;37.644;2023-09-12T00:57:56;28.48;;;20.08;;
39050;SDS011;24805;55.852;37.644;2023-09-12T01:02:58;33.63;;;21.52;;
39050;SDS011;24805;55.852;37.644;2023-09-12T01:08:01;32.13;;;22.02;;
39050;SDS011;24805;55.852;37.644;2023-09-12T01:13:04;35.65;;;23.08;;
39050;SDS011;24805;55.852;37.644;2023-09-12T01:18:07;33.00;;;22.20;;
39050;SDS011;24805;55.852;37.644;2023-09-12T01:28:34;38.30;;;24.50;;
39050;SDS011;24805;55.852;37.644;2023-09-12T01:33:38;40.17;;;25.02;;
39050;SDS011;24805;55.852;37.644;2023-09-12T01:38:41;38.50;;;24.42;;
39050;SDS011;24805;55.852;37.644;2023-09-12T01:43:44;36.67;;;25.02;;
39050;SDS011;24805;55.852;37.644;2023-09-12T01:48:47;37.15;;;25.05;;
39050;SDS011;24805;55.852;37.644;2023-09-12T01:53:53;37.50;;;24.90;;
39050;SDS011;24805;55.852;37.644;2023-09-12T01:58:57;40.60;;;25.20;;
39050;SDS011;24805;55.852;37.644;2023-09-12T02:03:59;35.05;;;25.35;;
39050;SDS011;24805;55.852;37.644;2023-09-12T02:09:03;38.90;;;23.38;;
39050;SDS011;24805;55.852;37.644;2023-09-12T02:14:05;35.38;;;25.10;;
39050;SDS011;24805;55.852;37.644;2023-09-12T02:19:07;36.30;;;24.42;;
39050;SDS011;24805;55.852;37.644;2023-09-12T02:24:12;35.63;;;24.23;;
39050;SDS011;24805;55.852;37.644;2023-09-12T02:29:14;34.50;;;22.52;;
39050;SDS011;24805;55.852;37.644;2023-09-12T02:34:16;37.20;;;23.25;;
39050;SDS011;24805;55.852;37.644;2023-09-12T02:39:19;37.78;;;23.90;;
39050;SDS011;24805;55.852;37.644;2023-09-12T02:44:21;36.97;;;23.17;;
39050;SDS011;24805;55.852;37.644;2023-09-12T02:49:23;38.22;;;24.50;;
39050;SDS011;24805;55.852;37.644;2023-09-12T02:54:26;33.83;;;22.33;;
39050;SDS011;24805;55.852;37.644;2023-09-12T02:59:29;37.88;;;23.25;;
39050;SDS011;24805;55.852;37.644;2023-09-12T03:04:32;35.33;;;22.55;;
39050;SDS011;24805;55.852;37.644;2023-09-12T03:09:36;37.47;;;23.65;;
39050;SDS011;24805;55.852;37.644;2023-09-12T03:14:40;36.05;;;22.95;;
39050;SDS011;24805;55.852;37.644;2023-09-12T03:19:43;34.72;;;23.08;;
39050;SDS011;24805;55.852;37.644;2023-09-12T03:24:45;31.83;;;22.02;;
39050;SDS011;24805;55.852;37.644;2023-09-12T03:29:48;34.08;;;21.42;;
39050;SDS011;24805;55.852;37.644;2023-09-12T03:34:50;33.67;;;21.77;;
39050;SDS011;24805;55.852;37.644;2023-09-12T03:39:53;36.10;;;23.05;;
39050;SDS011;24805;55.852;37.644;2023-09-12T03:44:55;37.38;;;23.80;;
39050;SDS011;24805;55.852;37.644;2023-09-12T03:49:57;38.70;;;23.15;;
39050;SDS011;24805;55.852;37.644;2023-09-12T03:54:59;38.53;;;22.88;;
39050;SDS011;24805;55.852;37.644;2023-09-12T04:00:04;31.90;;;22.60;;
39050;SDS011;24805;55.852;37.644;2023-09-12T04:05:14;35.80;;;23.30;;
39050;SDS011;24805;55.852;37.644;2023-09-12T04:10:17;32.92;;;21.63;;
39050;SDS011;24805;55.852;37.644;2023-09-12T04:15:21;34.88;;;22.08;;
39050;SDS011;24805;55.852;37.644;2023-09-12T04:20:23;35.10;;;22.88;;
39050;SDS011;24805;55.852;37.644;2023-09-12T04:25:26;40.15;;;24.77;;
39050;SDS011;24805;55.852;37.644;2023-09-12T04:30:28;39.50;;;25.48;;
39050;SDS011;24805;55.852;37.644;2023-09-12T04:35:34;43.15;;;26.70;;
39050;SDS011;24805;55.852;37.644;2023-09-12T04:40:37;40.83;;;26.05;;
39050;SDS011;24805;55.852;37.644;2023-09-12T04:45:41;38.88;;;27.27;;
39050;SDS011;24805;55.852;37.644;2023-09-12T04:50:44;46.60;;;28.05;;
39050;SDS011;24805;55.852;37.644;2023-09-12T04:55:46;46.25;;;27.70;;
39050;SDS011;24805;55.852;37.644;2023-09-12T05:00:48;41.75;;;27.88;;
39050;SDS011;24805;55.852;37.644;2023-09-12T05:05:51;40.90;;;29.60;;
39050;SDS011;24805;55.852;37.644;2023-09-12T05:10:54;40.70;;;27.77;;
39050;SDS011;24805;55.852;37.644;2023-09-12T05:15:56;42.53;;;28.25;;
39050;SDS011;24805;55.852;37.644;2023-09-12T05:20:59;41.45;;;28.52;;
39050;SDS011;24805;55.852;37.644;2023-09-12T05:26:01;49.35;;;32.83;;
39050;SDS011;24805;55.852;37.644;2023-09-12T05:31:04;35.90;;;26.65;;
39050;SDS011;24805;55.852;37.644;2023-09-12T05:36:08;35.33;;;25.95;;
39050;SDS011;24805;55.852;37.644;2023-09-12T05:41:12;41.75;;;27.60;;
39050;SDS011;24805;55.852;37.644;2023-09-12T05:46:15;36.10;;;28.25;;
39050;SDS011;24805;55.852;37.644;2023-09-12T05:51:17;39.92;;;26.85;;
39050;SDS011;24805;55.852;37.644;2023-09-12T05:56:19;34.38;;;25.10;;
39050;SDS011;24805;55.852;37.644;2023-09-12T06:01:22;36.55;;;26.10;;
39050;SDS011;24805;55.852;37.644;2023-09-12T06:06:24;39.13;;;27.02;;
39050;SDS011;24805;55.852;37.644;2023-09-12T06:11:28;27.75;;;24.00;;
39050;SDS011;24805;55.852;37.644;2023-09-12T06:16:30;29.63;;;20.80;;
39050;SDS011;24805;55.852;37.644;2023-09-12T06:21:32;24.42;;;19.23;;
39050;SDS011;24805;55.852;37.644;2023-09-12T06:26:35;21.33;;;17.48;;
39050;SDS011;24805;55.852;37.644;2023-09-12T06:31:37;22.38;;;18.85;;
39050;SDS011;24805;55.852;37.644;2023-09-12T06:36:39;24.45;;;18.35;;
39050;SDS011;24805;55.852;37.644;2023-09-12T06:41:43;19.73;;;17.65;;
39050;SDS011;24805;55.852;37.644;2023-09-12T06:46:45;21.17;;;17.80;;
39050;SDS011;24805;55.852;37.644;2023-09-12T06:51:47;22.38;;;18.02;;
39050;SDS011;24805;55.852;37.644;2023-09-12T06:56:51;19.38;;;17.10;;
39050;SDS011;24805;55.852;37.644;2023-09-12T07:01:54;19.75;;;17.63;;
39050;SDS011;24805;55.852;37.644;2023-09-12T07:06:56;17.92;;;16.15;;
39050;SDS011;24805;55.852;37.644;2023-09-12T07:11:58;22.05;;;15.35;;
39050;SDS011;24805;55.852;37.644;2023-09-12T07:17:00;16.20;;;14.52;;
39050;SDS011;24805;55.852;37.644;2023-09-12T07:22:03;16.90;;;14.80;;
39050;SDS011;24805;55.852;37.644;2023-09-12T07:27:05;15.40;;;13.55;;
39050;SDS011;24805;55.852;37.644;2023-09-12T07:32:07;14.32;;;12.80;;
39050;SDS011;24805;55.852;37.644;2023-09-12T07:37:09;17.63;;;14.15;;
39050;SDS011;24805;55.852;37.644;2023-09-12T07:42:11;13.10;;;11.80;;
39050;SDS011;24805;55.852;37.644;2023-09-12T07:47:13;13.85;;;12.35;;
39050;SDS011;24805;55.852;37.644;2023-09-12T07:52:16;17.20;;;13.18;;
39050;SDS011;24805;55.852;37.644;2023-09-12T07:57:18;15.65;;;12.73;;
39050;SDS011;24805;55.852;37.644;2023-09-12T08:02:20;15.68;;;12.20;;
39050;SDS011;24805;55.852;37.644;2023-09-12T08:07:22;17.25;;;12.65;;
39050;SDS011;24805;55.852;37.644;2023-09-12T08:12:25;13.82;;;11.82;;
39050;SDS011;24805;55.852;37.644;2023-09-12T08:17:29;11.52;;;10.32;;
39050;SDS011;24805;55.852;37.644;2023-09-12T08:22:31;9.75;;;8.82;;
39050;SDS011;24805;55.852;37.644;2023-09-12T08:27:33;13.00;;;11.05;;
39050;SDS011;24805;55.852;37.644;2023-09-12T08:32:35;11.43;;;10.13;;
39050;SDS011;24805;55.852;37.644;2023-09-12T08:37:38;15.18;;;11.27;;
39050;SDS011;24805;55.852;37.644;2023-09-12T08:42:44;11.88;;;10.73;;
39050;SDS011;24805;55.852;37.644;2023-09-12T08:47:51;10.63;;;9.52;;
39050;SDS011;24805;55.852;37.644;2023-09-12T08:52:55;10.90;;;9.27;;
39050;SDS011;24805;55.852;37.644;2023-09-12T08:58:09;9.85;;;8.95;;
39050;SDS011;24805;55.852;37.644;2023-09-12T09:03:11;11.13;;;8.23;;
39050;SDS011;24805;55.852;37.644;2023-09-12T09:08:14;9.07;;;8.27;;
39050;SDS011;24805;55.852;37.644;2023-09-12T09:13:17;9.48;;;8.55;;
39050;SDS011;24805;55.852;37.644;2023-09-12T09:18:21;16.73;;;15.02;;
39050;SDS011;24805;55.852;37.644;2023-09-12T09:23:23;8.70;;;7.80;;
39050;SDS011;24805;55.852;37.644;2023-09-12T09:28:25;11.07;;;9.60;;
39050;SDS011;24805;55.852;37.644;2023-09-12T09:33:28;8.77;;;7.97;;
39050;SDS011;24805;55.852;37.644;2023-09-12T09:38:37;8.68;;;7.30;;
39050;SDS011;24805;55.852;37.644;2023-09-12T09:43:39;7.95;;;7.15;;
39050;SDS011;24805;55.852;37.644;2023-09-12T09:48:48;7.50;;;6.70;;
39050;SDS011;24805;55.852;37.644;2023-09-12T09:53:52;7.72;;;6.70;;
39050;SDS011;24805;55.852;37.644;2023-09-12T09:58:59;8.68;;;7.80;;
39050;SDS011;24805;55.852;37.644;2023-09-12T10:04:01;7.72;;;6.95;;
39050;SDS011;24805;55.852;37.644;2023-09-12T10:09:09;7.70;;;6.55;;
39050;SDS011;24805;55.852;37.644;2023-09-12T10:14:13;7.75;;;6.70;;
39050;SDS011;24805;55.852;37.644;2023-09-12T10:19:20;12.05;;;9.00;;
39050;SDS011;24805;55.852;37.644;2023-09-12T10:24:29;8.90;;;5.80;;
39050;SDS011;24805;55.852;37.644;2023-09-12T10:29:32;8.00;;;7.20;;
39050;SDS011;24805;55.852;37.644;2023-09-12T10:34:36;9.15;;;7.28;;
39050;SDS011;24805;55.852;37.644;2023-09-12T10:39:40;8.20;;;7.40;;
39050;SDS011;24805;55.852;37.644;2023-09-12T10:44:45;8.38;;;6.97;;
39050;SDS011;24805;55.852;37.644;2023-09-12T10:49:48;11.95;;;10.65;;
39050;SDS011;24805;55.852;37.644;2023-09-12T10:54:50;15.73;;;14.05;;
39050;SDS011;24805;55.852;37.644;2023-09-12T11:05:50;9.32;;;8.25;;
39050;SDS011;24805;55.852;37.644;2023-09-12T11:10:30;7.40;;;5.57;;
39050;SDS011;24805;55.852;37.644;2023-09-12T11:15:34;5.93;;;5.03;;
39050;SDS011;24805;55.852;37.644;2023-09-12T11:20:52;8.43;;;5.15;;
39050;SDS011;24805;55.852;37.644;2023-09-12T11:26:08;6.05;;;5.45;;
39050;SDS011;24805;55.852;37.644;2023-09-12T11:31:12;7.85;;;5.47;;
39050;SDS011;24805;55.852;37.644;2023-09-12T11:36:26;6.85;;;6.25;;
39050;SDS011;24805;55.852;37.644;2023-09-12T11:42:03;6.68;;;5.40;;
39050;SDS011;24805;55.852;37.644;2023-09-12T11:47:01;5.93;;;5.35;;
39050;SDS011;24805;55.852;37.644;2023-09-12T11:52:11;6.60;;;5.20;;
39050;SDS011;24805;55.852;37.644;2023-09-12T11:57:15;10.45;;;5.00;;
39050;SDS011;24805;55.852;37.644;2023-09-12T12:02:18;8.80;;;5.43;;
39050;SDS011;24805;55.852;37.644;2023-09-12T12:07:20;4.47;;;4.07;;
39050;SDS011;24805;55.852;37.644;2023-09-12T12:12:22;4.03;;;3.60;;
39050;SDS011;24805;55.852;37.644;2023-09-12T12:17:25;5.97;;;5.05;;
39050;SDS011;24805;55.852;37.644;2023-09-12T12:22:27;9.38;;;4.53;;
39050;SDS011;24805;55.852;37.644;2023-09-12T12:27:29;7.30;;;6.60;;
39050;SDS011;24805;55.852;37.644;2023-09-12T12:32:31;7.43;;;5.18;;
39050;SDS011;24805;55.852;37.644;2023-09-12T12:37:33;8.30;;;4.40;;
39050;SDS011;24805;55.852;37.644;2023-09-12T12:42:39;7.57;;;5.55;;
39050;SDS011;24805;55.852;37.644;2023-09-12T12:47:59;6.53;;;4.47;;
39050;SDS011;24805;55.852;37.644;2023-09-12T12:53:02;8.75;;;4.65;;
39050;SDS011;24805;55.852;37.644;2023-09-12T12:58:05;5.70;;;5.13;;
39050;SDS011;24805;55.852;37.644;2023-09-12T13:03:07;8.63;;;5.25;;
39050;SDS011;24805;55.852;37.644;2023-09-12T13:08:09;6.13;;;5.45;;
39050;SDS011;24805;55.852;37.644;2023-09-12T13:13:11;7.80;;;6.18;;
39050;SDS011;24805;55.852;37.644;2023-09-12T13:18:13;7.13;;;5.72;;
39050;SDS011;24805;55.852;37.644;2023-09-12T13:23:15;7.78;;;5.15;;
39050;SDS011;24805;55.852;37.644;2023-09-12T13:28:17;12.13;;;5.40;;
39050;SDS011;24805;55.852;37.644;2023-09-12T13:33:20;8.73;;;5.53;;
39050;SDS011;24805;55.852;37.644;2023-09-12T13:38:22;8.60;;;5.13;;
39050;SDS011;24805;55.852;37.644;2023-09-12T13:43:25;13.73;;;5.40;;
39050;SDS011;24805;55.852;37.644;2023-09-12T13:48:27;7.43;;;5.10;;
39050;SDS011;24805;55.852;37.644;2023-09-12T13:53:30;5.38;;;3.88;;
39050;SDS011;24805;55.852;37.644;2023-09-12T13:58:32;5.63;;;4.07;;
39050;SDS011;24805;55.852;37.644;2023-09-12T14:03:51;4.82;;;4.18;;
39050;SDS011;24805;55.852;37.644;2023-09-12T14:08:56;7.50;;;5.25;;
39050;SDS011;24805;55.852;37.644;2023-09-12T14:13:58;8.23;;;4.88;;
39050;SDS011;24805;55.852;37.644;2023-09-12T14:19:13;7.57;;;4.93;;
39050;SDS011;24805;55.852;37.644;2023-09-12T14:24:17;7.05;;;5.25;;
39050;SDS011;24805;55.852;37.644;2023-09-12T14:29:22;17.25;;;6.57;;
39050;SDS011;24805;55.852;37.644;2023-09-12T14:34:28;13.15;;;5.40;;
39050;SDS011;24805;55.852;37.644;2023-09-12T14:39:33;11.90;;;5.85;;
39050;SDS011;24805;55.852;37.644;2023-09-12T14:44:35;11.20;;;6.15;;
39050;SDS011;24805;55.852;37.644;2023-09-12T14:49:39;13.98;;;6.38;;
39050;SDS011;24805;55.852;37.644;2023-09-12T14:54:52;15.30;;;9.52;;
39050;SDS011;24805;55.852;37.644;2023-09-12T14:59:55;9.68;;;5.93;;
39050;SDS011;24805;55.852;37.644;2023-09-12T15:05:01;9.05;;;5.03;;
39050;SDS011;24805;55.852;37.644;2023-09-12T15:10:07;12.80;;;5.80;;
39050;SDS011;24805;55.852;37.644;2023-09-12T15:15:09;14.07;;;6.22;;
39050;SDS011;24805;55.852;37.644;2023-09-12T15:20:12;16.73;;;7.50;;
39050;SDS011;24805;55.852;37.644;2023-09-12T15:25:14;15.90;;;8.25;;
39050;SDS011;24805;55.852;37.644;2023-09-12T15:30:16;17.05;;;6.97;;
39050;SDS011;24805;55.852;37.644;2023-09-12T15:35:18;20.95;;;14.32;;
39050;SDS011;24805;55.852;37.644;2023-09-12T15:40:20;16.20;;;10.05;;
39050;SDS011;24805;55.852;37.644;2023-09-12T15:45:23;21.40;;;8.50;;
39050;SDS011;24805;55.852;37.644;2023-09-12T15:50:25;19.73;;;13.85;;
39050;SDS011;24805;55.852;37.644;2023-09-12T15:55:27;19.13;;;9.35;;
39050;SDS011;24805;55.852;37.644;2023-09-12T16:00:29;13.80;;;7.57;;
39050;SDS011;24805;55.852;37.644;2023-09-12T16:05:32;15.85;;;7.65;;
39050;SDS011;24805;55.852;37.644;2023-09-12T16:10:34;11.77;;;6.80;;
39050;SDS011;24805;55.852;37.644;2023-09-12T16:15:36;18.48;;;9.32;;
39050;SDS011;24805;55.852;37.644;2023-09-12T16:20:38;10.60;;;6.38;;
39050;SDS011;24805;55.852;37.644;2023-09-12T16:25:41;16.67;;;7.15;;
39050;SDS011;24805;55.852;37.644;2023-09-12T16:30:43;11.35;;;6.55;;
39050;SDS011;24805;55.852;37.644;2023-09-12T16:35:46;8.80;;;6.82;;
39050;SDS011;24805;55.852;37.644;2023-09-12T16:40:48;13.80;;;7.90;;
39050;SDS011;24805;55.852;37.644;2023-09-12T16:45:50;14.35;;;8.75;;
39050;SDS011;24805;55.852;37.644;2023-09-12T16:50:53;15.95;;;8.45;;
39050;SDS011;24805;55.852;37.644;2023-09-12T16:55:55;15.85;;;7.82;;
39050;SDS011;24805;55.852;37.644;2023-09-12T17:00:59;17.33;;;9.27;;
39050;SDS011;24805;55.852;37.644;2023-09-12T17:06:02;14.52;;;8.85;;
39050;SDS011;24805;55.852;37.644;2023-09-12T17:11:04;16.30;;;9.10;;
39050;SDS011;24805;55.852;37.644;2023-09-12T17:16:06;30.83;;;14.77;;
39050;SDS011;24805;55.852;37.644;2023-09-12T17:21:09;15.15;;;9.52;;
39050;SDS011;24805;55.852;37.644;2023-09-12T17:26:11;29.45;;;14.32;;
39050;SDS011;24805;55.852;37.644;2023-09-12T17:31:13;43.42;;;19.48;;
39050;SDS011;24805;55.852;37.644;2023-09-12T17:36:16;29.40;;;12.88;;
39050;SDS011;24805;55.852;37.644;2023-09-12T17:41:19;19.95;;;11.23;;
39050;SDS011;24805;55.852;37.644;2023-09-12T17:46:21;22.75;;;12.07;;
39050;SDS011;24805;55.852;37.644;2023-09-12T17:51:23;17.70;;;10.48;;
39050;SDS011;24805;55.852;37.644;2023-09-12T17:56:26;34.22;;;18.23;;
39050;SDS011;24805;55.852;37.644;2023-09-12T18:01:28;43.78;;;25.77;;
39050;SDS011;24805;55.852;37.644;2023-09-12T18:06:30;22.08;;;10.25;;
39050;SDS011;24805;55.852;37.644;2023-09-12T18:11:34;34.95;;;21.33;;
39050;SDS011;24805;55.852;37.644;2023-09-12T18:16:36;15.40;;;9.68;;
39050;SDS011;24805;55.852;37.644;2023-09-12T18:21:39;19.05;;;11.25;;
39050;SDS011;24805;55.852;37.644;2023-09-12T18:26:41;31.40;;;18.13;;
39050;SDS011;24805;55.852;37.644;2023-09-12T18:31:43;23.02;;;14.93;;
39050;SDS011;24805;55.852;37.644;2023-09-12T18:36:46;28.30;;;14.52;;
39050;SDS011;24805;55.852;37.644;2023-09-12T18:41:48;13.50;;;7.95;;
39050;SDS011;24805;55.852;37.644;2023-09-12T18:46:50;18.80;;;12.50;;
39050;SDS011;24805;55.852;37.644;2023-09-12T18:51:53;19.63;;;11.02;;
39050;SDS011;24805;55.852;37.644;2023-09-12T18:56:57;13.88;;;8.10;;
39050;SDS011;24805;55.852;37.644;2023-09-12T19:02:00;13.88;;;8.65;;
39050;SDS011;24805;55.852;37.644;2023-09-12T19:07:02;17.27;;;9.70;;
39050;SDS011;24805;55.852;37.644;2023-09-12T19:12:05;14.90;;;10.02;;
39050;SDS011;24805;55.852;37.644;2023-09-12T19:17:08;17.58;;;11.35;;
39050;SDS011;24805;55.852;37.644;2023-09-12T19:22:11;17.90;;;10.48;;
39050;SDS011;24805;55.852;37.644;2023-09-12T19:27:13;14.05;;;7.93;;
39050;SDS011;24805;55.852;37.644;2023-09-12T19:32:15;12.73;;;8.65;;
39050;SDS011;24805;55.852;37.644;2023-09-12T19:37:17;14.13;;;8.65;;
39050;SDS011;24805;55.852;37.644;2023-09-12T19:42:20;13.82;;;8.30;;
39050;SDS011;24805;55.852;37.644;2023-09-12T19:47:23;11.55;;;6.70;;
39050;SDS011;24805;55.852;37.644;2023-09-12T19:52:25;13.63;;;7.55;;
39050;SDS011;24805;55.852;37.644;2023-09-12T19:57:27;18.65;;;8.27;;
39050;SDS011;24805;55.852;37.644;2023-09-12T20:02:29;14.68;;;7.72;;
39050;SDS011;24805;55.852;37.644;2023-09-12T20:07:31;15.50;;;8.30;;
39050;SDS011;24805;55.852;37.644;2023-09-12T20:12:34;14.48;;;9.38;;
39050;SDS011;24805;55.852;37.644;2023-09-12T20:17:36;13.13;;;8.77;;
39050;SDS011;24805;55.852;37.644;2023-09-12T20:22:38;10.60;;;7.45;;
39050;SDS011;24805;55.852;37.644;2023-09-12T20:27:40;13.52;;;8.38;;
39050;SDS011;24805;55.852;37.644;2023-09-12T20:32:42;18.50;;;9.70;;
39050;SDS011;24805;55.852;37.644;2023-09-12T20:37:59;13.93;;;7.68;;
39050;SDS011;24805;55.852;37.644;2023-09-12T20:43:01;13.20;;;8.85;;
39050;SDS011;24805;55.852;37.644;2023-09-12T20:48:03;12.85;;;8.68;;
39050;SDS011;24805;55.852;37.644;2023-09-12T20:53:06;13.20;;;7.93;;
39050;SDS011;24805;55.852;37.644;2023-09-12T20:58:09;15.60;;;8.20;;
39050;SDS011;24805;55.852;37.644;2023-09-12T21:03:13;13.90;;;9.25;;
39050;SDS011;24805;55.852;37.644;2023-09-12T21:08:15;15.55;;;9.00;;
39050;SDS011;24805;55.852;37.644;2023-09-12T21:13:18;14.30;;;9.15;;
39050;SDS011;24805;55.852;37.644;2023-09-12T21:18:20;12.30;;;8.60;;
39050;SDS011;24805;55.852;37.644;2023-09-12T21:23:22;15.70;;;8.98;;
39050;SDS011;24805;55.852;37.644;2023-09-12T21:28:24;12.02;;;9.13;;
39050;SDS011;24805;55.852;37.644;2023-09-12T21:33:26;15.70;;;8.75;;
39050;SDS011;24805;55.852;37.644;2023-09-12T21:38:29;16.80;;;9.43;;
39050;SDS011;24805;55.852;37.644;2023-09-12T21:43:31;17.17;;;9.95;;
39050;SDS011;24805;55.852;37.644;2023-09-12T21:48:33;20.42;;;11.35;;
39050;SDS011;24805;55.852;37.644;2023-09-12T21:53:35;18.48;;;10.88;;
39050;SDS011;24805;55.852;37.644;2023-09-12T21:58:38;16.15;;;10.15;;
39050;SDS011;24805;55.852;37.644;2023-09-12T22:03:40;18.55;;;11.40;;
39050;SDS011;24805;55.852;37.644;2023-09-12T22:08:42;15.15;;;10.43;;
39050;SDS011;24805;55.852;37.644;2023-09-12T22:13:44;18.88;;;9.93;;
39050;SDS011;24805;55.852;37.644;2023-09-12T22:18:47;14.00;;;10.15;;
39050;SDS011;24805;55.852;37.644;2023-09-12T22:23:49;15.45;;;10.38;;
39050;SDS011;24805;55.852;37.644;2023-09-12T22:28:51;18.73;;;11.20;;
39050;SDS011;24805;55.852;37.644;2023-09-12T22:38:55;13.73;;;9.80;;
39050;SDS011;24805;55.852;37.644;2023-09-12T22:43:57;15.75;;;10.27;;
39050;SDS011;24805;55.852;37.644;2023-09-12T22:49:00;11.98;;;9.07;;
39050;SDS011;24805;55.852;37.644;2023-09-12T22:54:02;15.88;;;9.32;;
39050;SDS011;24805;55.852;37.644;2023-09-12T22:59:04;15.63;;;10.65;;
39050;SDS011;24805;55.852;37.644;2023-09-12T23:04:06;15.20;;;10.65;;
39050;SDS011;24805;55.852;37.644;2023-09-12T23:09:08;15.25;;;9.65;;
39050;SDS011;24805;55.852;37.644;2023-09-12T23:14:10;15.48;;;10.73;;
39050;SDS011;24805;55.852;37.644;2023-09-12T23:19:12;20.20;;;11.20;;
39050;SDS011;24805;55.852;37.644;2023-09-12T23:24:15;18.95;;;10.82;;
39050;SDS011;24805;55.852;37.644;2023-09-12T23:29:17;17.65;;;11.05;;
39050;SDS011;24805;55.852;37.644;2023-09-12T23:34:19;17.15;;;10.98;;
39050;SDS011;24805;55.852;37.644;2023-09-12T23:39:21;19.85;;;11.38;;
39050;SDS011;24805;55.852;37.644;2023-09-12T23:44:24;20.05;;;11.82;;
39050;SDS011;24805;55.852;37.644;2023-09-12T23:49:26;20.52;;;11.07;;
39050;SDS011;24805;55.852;37.644;2023-09-12T23:54:28;15.10;;;10.73;;
39050;SDS011;24805;55.852;37.644;2023-09-12T23:59:31;17.20;;;10.43;;
